sensor_id;sensor_type;location;lat;lon;timestamp;temperature;humidity
19174;DHT22;9719;49.322;8.536;2022-08-19T00:01:06;23.20;65.90
19174;DHT22;9719;49.322;8.536;2022-08-19T00:06:08;23.20;66.00
19174;DHT22;9719;49.322;8.536;2022-08-19T00:11:13;23.20;66.00
19174;DHT22;9719;49.322;8.536;2022-08-19T00:16:15;23.20;65.90
19174;DHT22;9719;49.322;8.536;2022-08-19T00:21:20;23.20;65.90
19174;DHT22;9719;49.322;8.536;2022-08-19T00:26:23;23.20;66.00
19174;DHT22;9719;49.322;8.536;2022-08-19T00:31:25;23.20;66.30
19174;DHT22;9719;49.322;8.536;2022-08-19T00:36:28;23.20;66.20
19174;DHT22;9719;49.322;8.536;2022-08-19T00:41:34;23.20;66.20
19174;DHT22;9719;49.322;8.536;2022-08-19T00:46:39;23.20;66.30
19174;DHT22;9719;49.322;8.536;2022-08-19T00:51:43;23.20;66.20
19174;DHT22;9719;49.322;8.536;2022-08-19T00:56:49;23.20;66.30
19174;DHT22;9719;49.322;8.536;2022-08-19T01:02:10;23.20;66.30
19174;DHT22;9719;49.322;8.536;2022-08-19T01:07:25;23.20;66.30
19174;DHT22;9719;49.322;8.536;2022-08-19T01:12:30;23.20;66.20
19174;DHT22;9719;49.322;8.536;2022-08-19T01:17:33;23.20;66.20
19174;DHT22;9719;49.322;8.536;2022-08-19T01:22:40;23.20;66.30
19174;DHT22;9719;49.322;8.536;2022-08-19T01:27:46;23.20;66.30
19174;DHT22;9719;49.322;8.536;2022-08-19T01:32:48;23.20;66.40
19174;DHT22;9719;49.322;8.536;2022-08-19T01:37:55;23.10;66.50
19174;DHT22;9719;49.322;8.536;2022-08-19T01:42:58;23.20;66.70
19174;DHT22;9719;49.322;8.536;2022-08-19T01:48:00;23.10;66.70
19174;DHT22;9719;49.322;8.536;2022-08-19T01:53:07;23.10;66.70
19174;DHT22;9719;49.322;8.536;2022-08-19T01:58:12;23.10;66.70
19174;DHT22;9719;49.322;8.536;2022-08-19T02:03:16;23.10;67.00
19174;DHT22;9719;49.322;8.536;2022-08-19T02:08:19;23.10;66.90
19174;DHT22;9719;49.322;8.536;2022-08-19T02:13:22;23.10;67.00
19174;DHT22;9719;49.322;8.536;2022-08-19T02:18:24;23.10;66.90
19174;DHT22;9719;49.322;8.536;2022-08-19T02:23:28;23.10;66.90
19174;DHT22;9719;49.322;8.536;2022-08-19T02:28:30;23.10;67.10
19174;DHT22;9719;49.322;8.536;2022-08-19T02:33:32;23.10;67.10
19174;DHT22;9719;49.322;8.536;2022-08-19T02:38:36;23.10;67.30
19174;DHT22;9719;49.322;8.536;2022-08-19T02:43:38;23.10;67.30
19174;DHT22;9719;49.322;8.536;2022-08-19T02:48:40;23.00;67.10
19174;DHT22;9719;49.322;8.536;2022-08-19T02:53:44;23.00;67.30
19174;DHT22;9719;49.322;8.536;2022-08-19T02:58:46;23.00;67.50
19174;DHT22;9719;49.322;8.536;2022-08-19T03:03:49;23.00;67.60
19174;DHT22;9719;49.322;8.536;2022-08-19T03:08:54;23.00;67.30
19174;DHT22;9719;49.322;8.536;2022-08-19T03:13:56;23.00;67.50
19174;DHT22;9719;49.322;8.536;2022-08-19T03:19:00;22.90;67.70
19174;DHT22;9719;49.322;8.536;2022-08-19T03:24:06;22.90;67.80
19174;DHT22;9719;49.322;8.536;2022-08-19T03:29:08;22.80;67.70
19174;DHT22;9719;49.322;8.536;2022-08-19T03:34:11;22.80;67.90
19174;DHT22;9719;49.322;8.536;2022-08-19T03:39:15;22.80;68.00
19174;DHT22;9719;49.322;8.536;2022-08-19T03:44:21;22.70;68.30
19174;DHT22;9719;49.322;8.536;2022-08-19T03:49:25;22.60;68.10
19174;DHT22;9719;49.322;8.536;2022-08-19T03:54:29;22.60;68.30
19174;DHT22;9719;49.322;8.536;2022-08-19T03:59:34;22.70;68.40
19174;DHT22;9719;49.322;8.536;2022-08-19T04:04:37;22.60;68.60
19174;DHT22;9719;49.322;8.536;2022-08-19T04:09:40;22.60;68.40
19174;DHT22;9719;49.322;8.536;2022-08-19T04:14:42;22.50;68.60
19174;DHT22;9719;49.322;8.536;2022-08-19T04:19:45;22.50;68.60
19174;DHT22;9719;49.322;8.536;2022-08-19T04:24:48;22.50;68.60
19174;DHT22;9719;49.322;8.536;2022-08-19T04:29:50;22.40;68.50
19174;DHT22;9719;49.322;8.536;2022-08-19T04:34:52;22.40;68.60
19174;DHT22;9719;49.322;8.536;2022-08-19T04:40:01;22.50;68.60
19174;DHT22;9719;49.322;8.536;2022-08-19T04:45:20;22.40;68.50
19174;DHT22;9719;49.322;8.536;2022-08-19T04:50:22;22.40;68.60
19174;DHT22;9719;49.322;8.536;2022-08-19T04:55:26;22.30;68.70
19174;DHT22;9719;49.322;8.536;2022-08-19T05:00:28;22.30;68.80
19174;DHT22;9719;49.322;8.536;2022-08-19T05:05:30;22.30;68.80
19174;DHT22;9719;49.322;8.536;2022-08-19T05:10:36;22.30;69.00
19174;DHT22;9719;49.322;8.536;2022-08-19T05:15:38;22.30;69.20
19174;DHT22;9719;49.322;8.536;2022-08-19T05:20:40;22.30;69.20
19174;DHT22;9719;49.322;8.536;2022-08-19T05:26:01;22.40;69.30
19174;DHT22;9719;49.322;8.536;2022-08-19T05:31:03;22.50;69.20
19174;DHT22;9719;49.322;8.536;2022-08-19T05:36:05;22.60;69.20
19174;DHT22;9719;49.322;8.536;2022-08-19T05:41:10;22.70;69.10
19174;DHT22;9719;49.322;8.536;2022-08-19T05:46:17;22.70;69.00
19174;DHT22;9719;49.322;8.536;2022-08-19T05:51:20;22.80;69.00
19174;DHT22;9719;49.322;8.536;2022-08-19T05:56:24;22.90;68.90
19174;DHT22;9719;49.322;8.536;2022-08-19T06:01:27;22.90;68.80
19174;DHT22;9719;49.322;8.536;2022-08-19T06:06:29;23.00;68.60
19174;DHT22;9719;49.322;8.536;2022-08-19T06:11:35;23.10;68.40
19174;DHT22;9719;49.322;8.536;2022-08-19T06:16:39;23.10;68.40
19174;DHT22;9719;49.322;8.536;2022-08-19T06:21:44;23.20;68.30
19174;DHT22;9719;49.322;8.536;2022-08-19T06:26:49;23.30;68.10
19174;DHT22;9719;49.322;8.536;2022-08-19T06:31:53;23.40;68.10
19174;DHT22;9719;49.322;8.536;2022-08-19T06:36:57;23.40;68.10
19174;DHT22;9719;49.322;8.536;2022-08-19T06:42:05;23.50;67.80
19174;DHT22;9719;49.322;8.536;2022-08-19T06:47:14;23.60;67.50
19174;DHT22;9719;49.322;8.536;2022-08-19T06:52:17;23.60;67.50
19174;DHT22;9719;49.322;8.536;2022-08-19T06:57:22;23.60;67.30
19174;DHT22;9719;49.322;8.536;2022-08-19T07:02:24;23.70;67.10
19174;DHT22;9719;49.322;8.536;2022-08-19T07:07:27;23.80;66.90
19174;DHT22;9719;49.322;8.536;2022-08-19T07:12:31;24.00;66.90
19174;DHT22;9719;49.322;8.536;2022-08-19T07:17:34;24.10;66.00
19174;DHT22;9719;49.322;8.536;2022-08-19T07:22:38;24.20;65.80
19174;DHT22;9719;49.322;8.536;2022-08-19T07:27:41;24.40;65.40
19174;DHT22;9719;49.322;8.536;2022-08-19T07:32:44;24.50;65.30
19174;DHT22;9719;49.322;8.536;2022-08-19T07:37:46;24.70;64.60
19174;DHT22;9719;49.322;8.536;2022-08-19T07:42:50;24.80;64.20
19174;DHT22;9719;49.322;8.536;2022-08-19T07:47:52;24.90;63.90
19174;DHT22;9719;49.322;8.536;2022-08-19T07:52:54;25.00;63.60
19174;DHT22;9719;49.322;8.536;2022-08-19T07:57:58;25.00;63.50
19174;DHT22;9719;49.322;8.536;2022-08-19T08:03:00;25.10;63.20
19174;DHT22;9719;49.322;8.536;2022-08-19T08:08:02;25.20;63.00
19174;DHT22;9719;49.322;8.536;2022-08-19T08:13:38;25.30;62.70
19174;DHT22;9719;49.322;8.536;2022-08-19T08:18:41;25.30;62.40
19174;DHT22;9719;49.322;8.536;2022-08-19T08:23:44;25.30;62.10
19174;DHT22;9719;49.322;8.536;2022-08-19T08:28:47;25.40;62.00
19174;DHT22;9719;49.322;8.536;2022-08-19T08:33:49;25.60;61.60
19174;DHT22;9719;49.322;8.536;2022-08-19T08:38:51;25.80;60.60
19174;DHT22;9719;49.322;8.536;2022-08-19T08:43:56;25.90;59.70
19174;DHT22;9719;49.322;8.536;2022-08-19T08:49:06;26.10;59.60
19174;DHT22;9719;49.322;8.536;2022-08-19T08:54:20;26.30;58.90
19174;DHT22;9719;49.322;8.536;2022-08-19T08:59:28;26.60;58.30
19174;DHT22;9719;49.322;8.536;2022-08-19T09:04:34;26.90;57.00
19174;DHT22;9719;49.322;8.536;2022-08-19T09:09:39;27.20;56.60
19174;DHT22;9719;49.322;8.536;2022-08-19T09:14:47;27.40;55.50
19174;DHT22;9719;49.322;8.536;2022-08-19T09:19:55;27.50;54.60
19174;DHT22;9719;49.322;8.536;2022-08-19T09:24:57;27.60;54.50
19174;DHT22;9719;49.322;8.536;2022-08-19T09:30:00;27.80;53.80
19174;DHT22;9719;49.322;8.536;2022-08-19T09:35:04;28.10;53.80
19174;DHT22;9719;49.322;8.536;2022-08-19T09:40:07;28.50;52.50
19174;DHT22;9719;49.322;8.536;2022-08-19T09:45:12;28.70;51.50
19174;DHT22;9719;49.322;8.536;2022-08-19T09:50:14;29.10;51.10
19174;DHT22;9719;49.322;8.536;2022-08-19T09:55:18;29.30;50.00
19174;DHT22;9719;49.322;8.536;2022-08-19T10:00:22;29.40;49.80
19174;DHT22;9719;49.322;8.536;2022-08-19T10:05:24;29.90;48.60
19174;DHT22;9719;49.322;8.536;2022-08-19T10:10:44;30.70;47.50
19174;DHT22;9719;49.322;8.536;2022-08-19T10:15:48;31.50;45.50
19174;DHT22;9719;49.322;8.536;2022-08-19T10:20:51;31.70;45.10
19174;DHT22;9719;49.322;8.536;2022-08-19T10:25:54;31.70;45.00
19174;DHT22;9719;49.322;8.536;2022-08-19T10:30:57;31.50;44.80
19174;DHT22;9719;49.322;8.536;2022-08-19T10:36:00;31.30;45.40
19174;DHT22;9719;49.322;8.536;2022-08-19T10:41:10;31.30;45.30
19174;DHT22;9719;49.322;8.536;2022-08-19T10:46:15;31.30;45.10
19174;DHT22;9719;49.322;8.536;2022-08-19T10:51:17;31.50;44.40
19174;DHT22;9719;49.322;8.536;2022-08-19T10:56:37;31.70;43.30
19174;DHT22;9719;49.322;8.536;2022-08-19T11:01:59;31.70;43.00
19174;DHT22;9719;49.322;8.536;2022-08-19T11:07:03;31.70;42.70
19174;DHT22;9719;49.322;8.536;2022-08-19T11:12:05;31.70;42.60
19174;DHT22;9719;49.322;8.536;2022-08-19T11:17:09;31.60;42.60
19174;DHT22;9719;49.322;8.536;2022-08-19T11:22:14;31.60;42.20
19174;DHT22;9719;49.322;8.536;2022-08-19T11:27:16;31.30;42.60
19174;DHT22;9719;49.322;8.536;2022-08-19T11:32:19;31.10;43.10
19174;DHT22;9719;49.322;8.536;2022-08-19T11:37:21;31.20;43.30
19174;DHT22;9719;49.322;8.536;2022-08-19T11:42:23;31.40;42.60
19174;DHT22;9719;49.322;8.536;2022-08-19T11:47:46;31.60;41.30
19174;DHT22;9719;49.322;8.536;2022-08-19T11:52:48;31.60;41.00
19174;DHT22;9719;49.322;8.536;2022-08-19T11:57:50;31.70;41.10
19174;DHT22;9719;49.322;8.536;2022-08-19T12:02:54;32.00;41.40
19174;DHT22;9719;49.322;8.536;2022-08-19T12:07:56;32.20;40.20
19174;DHT22;9719;49.322;8.536;2022-08-19T12:12:58;32.20;39.40
19174;DHT22;9719;49.322;8.536;2022-08-19T12:18:01;32.20;37.90
19174;DHT22;9719;49.322;8.536;2022-08-19T12:23:09;32.10;37.60
19174;DHT22;9719;49.322;8.536;2022-08-19T12:28:13;32.10;37.50
19174;DHT22;9719;49.322;8.536;2022-08-19T12:33:18;32.20;37.50
19174;DHT22;9719;49.322;8.536;2022-08-19T12:38:30;32.40;36.30
19174;DHT22;9719;49.322;8.536;2022-08-19T12:43:43;32.40;36.00
19174;DHT22;9719;49.322;8.536;2022-08-19T12:48:53;32.50;35.50
19174;DHT22;9719;49.322;8.536;2022-08-19T12:53:58;32.40;35.10
19174;DHT22;9719;49.322;8.536;2022-08-19T12:59:02;32.50;34.80
19174;DHT22;9719;49.322;8.536;2022-08-19T13:04:07;32.60;33.80
19174;DHT22;9719;49.322;8.536;2022-08-19T13:09:09;32.70;33.40
19174;DHT22;9719;49.322;8.536;2022-08-19T13:14:12;32.70;33.40
19174;DHT22;9719;49.322;8.536;2022-08-19T13:19:16;32.80;33.30
19174;DHT22;9719;49.322;8.536;2022-08-19T13:24:22;32.80;33.00
19174;DHT22;9719;49.322;8.536;2022-08-19T13:29:26;32.90;32.50
19174;DHT22;9719;49.322;8.536;2022-08-19T13:34:48;32.80;31.80
19174;DHT22;9719;49.322;8.536;2022-08-19T13:39:51;32.80;32.20
19174;DHT22;9719;49.322;8.536;2022-08-19T13:45:00;32.80;32.00
19174;DHT22;9719;49.322;8.536;2022-08-19T13:50:09;32.60;31.70
19174;DHT22;9719;49.322;8.536;2022-08-19T13:55:15;32.40;31.00
19174;DHT22;9719;49.322;8.536;2022-08-19T14:00:22;32.40;31.10
19174;DHT22;9719;49.322;8.536;2022-08-19T14:05:31;32.30;31.00
19174;DHT22;9719;49.322;8.536;2022-08-19T14:10:33;32.40;31.30
19174;DHT22;9719;49.322;8.536;2022-08-19T14:15:39;32.40;31.20
19174;DHT22;9719;49.322;8.536;2022-08-19T14:20:43;32.50;31.00
19174;DHT22;9719;49.322;8.536;2022-08-19T14:36:08;32.60;30.80
19174;DHT22;9719;49.322;8.536;2022-08-19T14:41:13;32.60;30.60
19174;DHT22;9719;49.322;8.536;2022-08-19T14:46:19;32.50;30.30
19174;DHT22;9719;49.322;8.536;2022-08-19T14:51:24;32.40;30.40
19174;DHT22;9719;49.322;8.536;2022-08-19T14:56:29;32.40;30.60
19174;DHT22;9719;49.322;8.536;2022-08-19T15:01:31;32.40;30.70
19174;DHT22;9719;49.322;8.536;2022-08-19T15:06:36;32.30;30.90
19174;DHT22;9719;49.322;8.536;2022-08-19T15:11:38;32.20;31.00
19174;DHT22;9719;49.322;8.536;2022-08-19T15:16:40;32.10;31.40
19174;DHT22;9719;49.322;8.536;2022-08-19T15:21:43;32.00;31.50
19174;DHT22;9719;49.322;8.536;2022-08-19T15:26:45;32.00;31.80
19174;DHT22;9719;49.322;8.536;2022-08-19T15:31:47;32.00;32.20
19174;DHT22;9719;49.322;8.536;2022-08-19T15:36:52;32.00;32.20
19174;DHT22;9719;49.322;8.536;2022-08-19T15:41:54;31.90;31.70
19174;DHT22;9719;49.322;8.536;2022-08-19T15:46:56;31.90;31.80
19174;DHT22;9719;49.322;8.536;2022-08-19T15:52:01;31.80;32.10
19174;DHT22;9719;49.322;8.536;2022-08-19T15:57:08;31.80;31.80
19174;DHT22;9719;49.322;8.536;2022-08-19T16:02:28;31.70;31.90
19174;DHT22;9719;49.322;8.536;2022-08-19T16:07:49;31.70;32.20
19174;DHT22;9719;49.322;8.536;2022-08-19T16:12:51;31.60;32.50
19174;DHT22;9719;49.322;8.536;2022-08-19T16:17:53;31.60;32.50
19174;DHT22;9719;49.322;8.536;2022-08-19T16:22:57;31.50;32.60
19174;DHT22;9719;49.322;8.536;2022-08-19T16:27:59;31.40;32.80
19174;DHT22;9719;49.322;8.536;2022-08-19T16:33:02;31.50;33.20
19174;DHT22;9719;49.322;8.536;2022-08-19T16:38:19;31.50;33.30
19174;DHT22;9719;49.322;8.536;2022-08-19T16:43:39;31.30;33.50
19174;DHT22;9719;49.322;8.536;2022-08-19T16:48:43;31.30;33.50
19174;DHT22;9719;49.322;8.536;2022-08-19T16:53:47;31.20;34.10
19174;DHT22;9719;49.322;8.536;2022-08-19T16:58:51;31.20;34.40
19174;DHT22;9719;49.322;8.536;2022-08-19T17:03:53;31.20;34.30
19174;DHT22;9719;49.322;8.536;2022-08-19T17:08:59;31.00;34.40
19174;DHT22;9719;49.322;8.536;2022-08-19T17:14:01;30.90;34.50
19174;DHT22;9719;49.322;8.536;2022-08-19T17:19:06;30.80;34.60
19174;DHT22;9719;49.322;8.536;2022-08-19T17:24:09;30.60;35.30
19174;DHT22;9719;49.322;8.536;2022-08-19T17:29:11;30.50;35.30
19174;DHT22;9719;49.322;8.536;2022-08-19T17:34:13;30.40;35.50
19174;DHT22;9719;49.322;8.536;2022-08-19T17:39:18;30.30;35.80
19174;DHT22;9719;49.322;8.536;2022-08-19T17:44:19;30.20;36.20
19174;DHT22;9719;49.322;8.536;2022-08-19T17:49:21;30.20;36.40
19174;DHT22;9719;49.322;8.536;2022-08-19T17:54:25;30.10;36.80
19174;DHT22;9719;49.322;8.536;2022-08-19T17:59:27;30.00;37.30
19174;DHT22;9719;49.322;8.536;2022-08-19T18:04:37;29.90;36.60
19174;DHT22;9719;49.322;8.536;2022-08-19T18:09:56;29.80;36.80
19174;DHT22;9719;49.322;8.536;2022-08-19T18:14:59;29.70;37.20
19174;DHT22;9719;49.322;8.536;2022-08-19T18:20:09;29.50;37.50
19174;DHT22;9719;49.322;8.536;2022-08-19T18:25:20;29.50;38.00
19174;DHT22;9719;49.322;8.536;2022-08-19T18:30:37;29.50;38.40
19174;DHT22;9719;49.322;8.536;2022-08-19T18:35:55;29.40;39.30
19174;DHT22;9719;49.322;8.536;2022-08-19T18:41:12;29.20;39.50
19174;DHT22;9719;49.322;8.536;2022-08-19T18:46:35;29.10;40.20
19174;DHT22;9719;49.322;8.536;2022-08-19T18:51:57;29.00;40.30
19174;DHT22;9719;49.322;8.536;2022-08-19T18:57:06;28.90;40.60
19174;DHT22;9719;49.322;8.536;2022-08-19T19:02:08;28.80;41.10
19174;DHT22;9719;49.322;8.536;2022-08-19T19:07:12;28.70;41.40
19174;DHT22;9719;49.322;8.536;2022-08-19T19:12:16;28.60;41.60
19174;DHT22;9719;49.322;8.536;2022-08-19T19:17:26;28.40;42.30
19174;DHT22;9719;49.322;8.536;2022-08-19T19:22:28;28.30;42.50
19174;DHT22;9719;49.322;8.536;2022-08-19T19:27:31;28.30;43.10
19174;DHT22;9719;49.322;8.536;2022-08-19T19:32:34;28.10;43.60
19174;DHT22;9719;49.322;8.536;2022-08-19T19:37:38;28.00;43.80
19174;DHT22;9719;49.322;8.536;2022-08-19T19:42:41;28.00;43.90
19174;DHT22;9719;49.322;8.536;2022-08-19T19:47:43;27.90;43.70
19174;DHT22;9719;49.322;8.536;2022-08-19T19:52:49;27.80;44.20
19174;DHT22;9719;49.322;8.536;2022-08-19T19:57:53;27.70;44.50
19174;DHT22;9719;49.322;8.536;2022-08-19T20:02:57;27.60;44.50
19174;DHT22;9719;49.322;8.536;2022-08-19T20:07:59;27.60;44.50
19174;DHT22;9719;49.322;8.536;2022-08-19T20:13:21;27.60;44.40
19174;DHT22;9719;49.322;8.536;2022-08-19T20:18:25;27.40;44.30
19174;DHT22;9719;49.322;8.536;2022-08-19T20:23:27;27.40;44.00
19174;DHT22;9719;49.322;8.536;2022-08-19T20:28:31;27.30;44.00
19174;DHT22;9719;49.322;8.536;2022-08-19T20:33:33;27.20;44.00
19174;DHT22;9719;49.322;8.536;2022-08-19T20:38:35;27.10;44.10
19174;DHT22;9719;49.322;8.536;2022-08-19T20:43:40;27.00;44.20
19174;DHT22;9719;49.322;8.536;2022-08-19T20:48:42;27.00;44.20
19174;DHT22;9719;49.322;8.536;2022-08-19T20:53:44;26.80;44.00
19174;DHT22;9719;49.322;8.536;2022-08-19T20:58:47;26.70;44.00
19174;DHT22;9719;49.322;8.536;2022-08-19T21:03:50;26.60;44.20
19174;DHT22;9719;49.322;8.536;2022-08-19T21:08:52;26.50;44.50
19174;DHT22;9719;49.322;8.536;2022-08-19T21:13:55;26.30;44.80
19174;DHT22;9719;49.322;8.536;2022-08-19T21:18:57;26.30;45.00
19174;DHT22;9719;49.322;8.536;2022-08-19T21:23:59;26.10;45.30
19174;DHT22;9719;49.322;8.536;2022-08-19T21:29:03;26.00;45.60
19174;DHT22;9719;49.322;8.536;2022-08-19T21:34:05;25.90;45.30
19174;DHT22;9719;49.322;8.536;2022-08-19T21:39:07;25.80;45.50
19174;DHT22;9719;49.322;8.536;2022-08-19T21:44:10;25.70;45.90
19174;DHT22;9719;49.322;8.536;2022-08-19T21:49:12;25.70;46.10
19174;DHT22;9719;49.322;8.536;2022-08-19T21:54:14;25.60;46.40
19174;DHT22;9719;49.322;8.536;2022-08-19T21:59:18;25.50;46.70
19174;DHT22;9719;49.322;8.536;2022-08-19T22:04:20;25.40;47.20
19174;DHT22;9719;49.322;8.536;2022-08-19T22:09:22;25.30;47.50
19174;DHT22;9719;49.322;8.536;2022-08-19T22:14:25;25.10;47.70
19174;DHT22;9719;49.322;8.536;2022-08-19T22:19:27;25.00;48.00
19174;DHT22;9719;49.322;8.536;2022-08-19T22:24:29;24.80;48.50
19174;DHT22;9719;49.322;8.536;2022-08-19T22:29:33;24.70;49.00
19174;DHT22;9719;49.322;8.536;2022-08-19T22:34:36;24.50;49.30
19174;DHT22;9719;49.322;8.536;2022-08-19T22:39:38;24.50;49.70
19174;DHT22;9719;49.322;8.536;2022-08-19T22:44:41;24.30;49.90
19174;DHT22;9719;49.322;8.536;2022-08-19T22:49:43;24.20;50.20
19174;DHT22;9719;49.322;8.536;2022-08-19T22:54:47;24.00;50.40
19174;DHT22;9719;49.322;8.536;2022-08-19T22:59:52;23.90;51.00
19174;DHT22;9719;49.322;8.536;2022-08-19T23:04:54;23.80;51.30
19174;DHT22;9719;49.322;8.536;2022-08-19T23:09:56;23.70;51.60
19174;DHT22;9719;49.322;8.536;2022-08-19T23:15:03;23.60;51.70
19174;DHT22;9719;49.322;8.536;2022-08-19T23:20:08;23.50;52.50
19174;DHT22;9719;49.322;8.536;2022-08-19T23:25:14;23.40;53.00
19174;DHT22;9719;49.322;8.536;2022-08-19T23:30:18;23.30;53.20
19174;DHT22;9719;49.322;8.536;2022-08-19T23:35:31;23.30;53.40
19174;DHT22;9719;49.322;8.536;2022-08-19T23:40:34;23.20;53.60
19174;DHT22;9719;49.322;8.536;2022-08-19T23:45:39;23.10;53.70
19174;DHT22;9719;49.322;8.536;2022-08-19T23:50:42;23.10;54.00
19174;DHT22;9719;49.322;8.536;2022-08-19T23:55:46;23.00;54.20
